• Join FlightAware (Why Join?)
  • Login
  • US Flag 
06:30PM EDT


 

Airport Tracker/Info


-or-


 

Live Flight TrackerFlight Track Log ✈ SWA1969 ✈ 17-Apr-2013 ✈ KMCI - KMDW

Flight Track Log - Related Links

Times and Time Zones

All times are in EDT time to prevent confusion due to time zone crossing. See the SWA1969 flight status page for this flight to view local times or setup timezone preferences in your user account.

Time Position Orientation Groundspeed Altitude Reporting Facility
EDT Latitude Longitude Course Direction KTS MPH feet Rate Location/Type
11:28AM 39.3167 -94.7167 21° North 148 170 1,900  Level Kansas City TRACON
11:29AM 39.3500 -94.7000 21° North 198 228 2,400 900 Climbing Kansas City TRACON
11:30AM 39.3947 -94.6683 29° Northeast 248 285 3,300 2,460 Climbing Kansas City Center
11:31AM 39.4747 -94.6008 33° Northeast 304 350 6,900 3,120 Climbing Kansas City Center
11:32AM 39.5161 -94.5125 59° Northeast 314 361 9,700 1,500 Climbing Kansas City Center
11:33AM 39.4939 -94.3889 103° East 314 361 10,000 120 Climbing Kansas City Center
11:34AM 39.4869 -94.2697 94° East 350 403 10,000  Level Kansas City Center
11:35AM 39.4861 -94.1475 90° East 354 407 10,000  Level Kansas City Center
11:36AM 39.4831 -94.0036 92° East 358 412 10,000 960 Level Kansas City Center
11:37AM 39.4806 -93.8836 92° East 350 403 12,000 2,460 Climbing Kansas City Center
11:38AM 39.4867 -93.7492 87° East 365 420 15,200 2,700 Climbing Kansas City Center
11:39AM 39.4975 -93.6150 84° East 376 433 17,700 2,220 Climbing Kansas City Center
11:40AM 39.5125 -93.4733 82° East 400 460 19,900 1,980 Climbing Kansas City Center
11:41AM 39.5292 -93.2917 83° East 422 486 21,900 1,920 Climbing Kansas City Center
11:42AM 39.5517 -93.1289 80° East 455 524 24,000 1,980 Climbing Kansas City Center
11:43AM 39.5786 -92.9656 78° East 466 536 26,000 1,680 Climbing Kansas City Center
11:44AM 39.6333 -92.8119 65° Northeast 475 547 27,600 1,500 Climbing Kansas City Center
11:45AM 39.6703 -92.6161 76° East 483 556 29,100 1,620 Climbing Kansas City Center
11:46AM 39.6708 -92.4464 90° East 479 551 31,000 900 Climbing Kansas City Center
11:47AM 39.6869 -92.2814 83° East 471 542 31,000  Level Kansas City Center
11:48AM 39.7461 -92.1361 62° Northeast 463 533 31,000  Level Kansas City Center
11:49AM 39.8069 -91.9894 62° Northeast 465 535 31,000  Level Kansas City Center
11:50AM 39.8783 -91.8136 62° Northeast 465 535 31,000  Level Kansas City Center
11:52AM 39.9747 -91.5786 62° Northeast 466 536 31,000  Level Chicago Center
11:52AM 39.9997 -91.5186 61° Northeast 468 539 31,000  Level Kansas City Center
11:53AM 40.0594 -91.3708 62° Northeast 467 537 31,000  Level Kansas City Center
11:54AM 40.1181 -91.2208 63° Northeast 468 539 31,000  Level Kansas City Center
11:55AM 40.1906 -91.0394 62° Northeast 472 543 31,000  Level Kansas City Center
11:57AM 40.2444 -90.9092 62° Northeast 471 542 31,000 -300 Level Kansas City Center
11:57AM 40.2925 -90.7869 63° Northeast 472 543 30,500 -900 Descending Chicago Center
11:58AM 40.3539 -90.6325 62° Northeast 477 549 29,600 -960 Descending Chicago Center
11:59AM 40.4175 -90.4711 63° Northeast 493 567 28,600 -1,020 Descending Chicago Center
12:00PM 40.4803 -90.3092 63° Northeast 499 574 27,600 -1,080 Descending Chicago Center
12:01PM 40.5469 -90.1367 63° Northeast 496 571 26,500 -1,080 Descending Chicago Center
12:02PM 40.6081 -89.9781 63° Northeast 490 564 25,400 -1,500 Descending Chicago Center
12:03PM 40.6642 -89.8239 64° Northeast 474 545 23,500 -1,800 Descending Chicago Center
12:04PM 40.7233 -89.6836 61° Northeast 447 514 21,800 -1,740 Descending Chicago Center
12:05PM 40.7869 -89.5447 59° Northeast 418 481 20,000 -1,740 Descending Chicago Center
12:06PM 40.8419 -89.4175 60° Northeast 400 460 18,300 -1,560 Descending Chicago Center
12:07PM 40.9003 -89.2967 57° Northeast 392 451 16,900 -1,080 Descending Chicago Center
12:08PM 40.9917 -89.1631 48° Northeast 405 466 16,100 -840 Descending Chicago Center
12:09PM 41.0606 -89.0586 49° Northeast 406 467 15,200 -960 Descending Chicago Center
12:10PM 41.1344 -88.9494 48° Northeast 400 460 14,200 -1,320 Descending Chicago Center
12:12PM 41.2003 -88.8478 49° Northeast 372 428 12,600 -1,500 Descending Chicago Center
12:13PM 41.2736 -88.7358 49° Northeast 334 384 11,100 -1,620 Descending Chicago Center
12:14PM 41.3317 -88.6464 49° Northeast 321 369 9,400 -1,560 Descending Chicago Center
12:15PM 41.3844 -88.5558 52° Northeast 309 356 8,000 -1,320 Descending Chicago Center
12:16PM 41.4244 -88.4581 61° Northeast 302 348 6,700 -1,020 Descending Chicago Center
12:17PM 41.4644 -88.3642 60° Northeast 294 338 6,000 -780 Descending Chicago Center
12:18PM 41.5033 -88.2722 61° Northeast 286 329 5,200 -900 Descending Chicago Center
12:19PM 41.5417 -88.1808 61° Northeast 282 325 4,200 -840 Descending Chicago Center
12:20PM 41.5772 -88.0981 60° Northeast 267 307 3,600 -600 Descending Chicago Center
12:21PM 41.6083 -88.0242 61° Northeast 245 282 3,000 -300 Descending Chicago Center
12:22PM 41.6425 -87.9428 61° Northeast 223 257 3,000  Level Chicago Center
12:23PM 41.6758 -87.8883 51° Northeast 202 232 3,000 -180 Level Chicago Center
12:24PM 41.7000 -87.8500 50° Northeast 181 208 2,700 -720 Descending Chicago TRACON
12:25PM 41.7333 -87.8167 37° Northeast 134 154 1,800 -840 Descending Chicago TRACON
12:26PM 41.7667 -87.7833 37° Northeast 129 148 1,100 -720 Descending Chicago TRACON
12:28PM 41.7833 -87.7500 North  Level FlightAware Approximate